Time;durP1;ratioP1;P1;durP2;ratioP2;P2;SDS_P1;SDS_P2;PMS_P1;PMS_P2;Temp;Humidity;BMP_temperature;BMP_pressure;BME280_temperature;BME280_humidity;BME280_pressure;Samples;Min_cycle;Max_cycle;Signal;HPM_P1;HPM_P2
2022/05/30 00:00:29;;;;;;;7.70;3.15;;;;;;;;;;4994901;28;20056;-65
2022/05/30 00:02:59;;;;;;;6.72;3.42;;;;;;;;;;4994468;28;20054;-65
2022/05/30 00:05:30;;;;;;;6.80;3.53;;;;;;;;;;4995030;28;20133;-65
2022/05/30 00:08:00;;;;;;;6.28;3.40;;;;;;;;;;4994017;28;20054;-65
2022/05/30 00:10:29;;;;;;;6.47;3.30;;;;;;;;;;4994555;28;20050;-65
2022/05/30 00:12:59;;;;;;;3.65;3.30;;;;;;;;;;4988065;28;20046;-66
2022/05/30 00:15:29;;;;;;;4.07;3.08;;;;;;;;;;4988946;28;20383;-65
2022/05/30 00:17:59;;;;;;;5.45;3.10;;;;;;;;;;4994615;28;20070;-66
2022/05/30 00:20:28;;;;;;;4.05;3.20;;;;;;;;;;4994332;28;20111;-66
2022/05/30 00:22:59;;;;;;;4.65;3.53;;;;;;;;;;4989168;28;20050;-66
2022/05/30 00:25:28;;;;;;;3.60;3.30;;;;;;;;;;4994083;28;20096;-66
2022/05/30 00:27:58;;;;;;;6.40;4.57;;;;;;;;;;4994516;28;20046;-66
2022/05/30 00:30:27;;;;;;;3.47;3.17;;;;;;;;;;4994162;28;20050;-66
2022/05/30 00:32:56;;;;;;;7.45;3.35;;;;;;;;;;4994845;28;20481;-66
2022/05/30 00:35:25;;;;;;;5.88;3.45;;;;;;;;;;4993914;28;20030;-66
2022/05/30 00:37:54;;;;;;;4.10;3.75;;;;;;;;;;4994609;28;20065;-66
2022/05/30 00:40:24;;;;;;;4.15;3.72;;;;;;;;;;4994117;28;20053;-66
2022/05/30 00:42:53;;;;;;;5.55;3.65;;;;;;;;;;4993997;28;20065;-66
2022/05/30 00:45:23;;;;;;;4.45;3.58;;;;;;;;;;4993989;28;20042;-66
2022/05/30 00:47:53;;;;;;;4.85;3.65;;;;;;;;;;4976012;28;20058;-66
2022/05/30 00:50:22;;;;;;;9.00;3.55;;;;;;;;;;4976856;28;20080;-66
2022/05/30 00:52:51;;;;;;;6.40;3.47;;;;;;;;;;4993436;28;20051;-66
2022/05/30 00:55:21;;;;;;;7.05;3.88;;;;;;;;;;4976726;28;20049;-66
2022/05/30 00:57:51;;;;;;;5.53;4.30;;;;;;;;;;4992487;28;20485;-66
2022/05/30 01:00:25;;;;;;;4.28;3.80;;;;;;;;;;4976470;28;20104;-66
2022/05/30 01:08:32;;;;;;;6.18;5.10;;;;;;;;;;4976326;28;20061;-65
2022/05/30 01:11:01;;;;;;;4.93;4.43;;;;;;;;;;4993954;28;20104;-65
2022/05/30 01:13:30;;;;;;;5.45;4.95;;;;;;;;;;4992639;28;20156;-65
2022/05/30 01:15:59;;;;;;;12.40;5.05;;;;;;;;;;4976044;28;20498;-66
2022/05/30 01:18:36;;;;;;;6.28;5.40;;;;;;;;;;4970304;28;20069;-66
2022/05/30 01:21:45;;;;;;;5.75;5.10;;;;;;;;;;4991936;28;20053;-65
2022/05/30 01:24:29;;;;;;;7.50;5.63;;;;;;;;;;4976204;28;20085;-65
2022/05/30 01:27:29;;;;;;;6.25;5.63;;;;;;;;;;4993316;28;20148;-66
2022/05/30 01:30:08;;;;;;;7.22;6.57;;;;;;;;;;4976354;28;20108;-65
2022/05/30 01:32:38;;;;;;;8.90;6.63;;;;;;;;;;4976102;28;20498;-65
2022/05/30 01:35:09;;;;;;;7.90;7.03;;;;;;;;;;4976333;28;20398;-65
2022/05/30 01:37:41;;;;;;;7.75;5.97;;;;;;;;;;4979668;28;20516;-65
2022/05/30 01:40:12;;;;;;;8.52;6.90;;;;;;;;;;4980085;28;20047;-65
2022/05/30 01:42:42;;;;;;;11.25;6.80;;;;;;;;;;4979932;28;20054;-65
2022/05/30 01:45:11;;;;;;;7.35;6.65;;;;;;;;;;4980033;28;20048;-65
2022/05/30 01:47:40;;;;;;;9.18;6.63;;;;;;;;;;4996705;28;20093;-65
2022/05/30 01:50:11;;;;;;;7.82;5.93;;;;;;;;;;4980028;28;20061;-66
2022/05/30 01:52:41;;;;;;;7.68;6.97;;;;;;;;;;4979588;28;20052;-65
2022/05/30 01:55:12;;;;;;;8.18;7.00;;;;;;;;;;4979519;28;20054;-66
2022/05/30 01:58:03;;;;;;;11.65;8.45;;;;;;;;;;4975911;28;20096;-65
2022/05/30 02:00:34;;;;;;;10.57;6.95;;;;;;;;;;4996920;28;20050;-64
2022/05/30 02:03:05;;;;;;;9.50;7.93;;;;;;;;;;4979767;28;20436;-64
2022/05/30 02:05:34;;;;;;;10.23;8.40;;;;;;;;;;4979345;28;20065;-64
2022/05/30 02:08:04;;;;;;;9.45;7.53;;;;;;;;;;4979423;28;20053;-65
2022/05/30 02:10:36;;;;;;;9.20;7.22;;;;;;;;;;4979164;28;20058;-64
2022/05/30 02:13:08;;;;;;;11.32;8.10;;;;;;;;;;4979715;28;20408;-65
2022/05/30 02:18:45;;;;;;;9.10;7.97;;;;;;;;;;4979490;28;20421;-64
2022/05/30 02:21:16;;;;;;;9.82;7.05;;;;;;;;;;4979038;28;20539;-64
2022/05/30 02:23:46;;;;;;;8.82;8.02;;;;;;;;;;4976082;28;20101;-65
2022/05/30 02:26:15;;;;;;;11.60;8.57;;;;;;;;;;4975564;28;20050;-64
2022/05/30 02:28:44;;;;;;;9.38;8.45;;;;;;;;;;4975968;28;20043;-65
2022/05/30 02:31:15;;;;;;;8.27;7.50;;;;;;;;;;4976005;28;20133;-65
2022/05/30 02:36:40;;;;;;;11.15;7.95;;;;;;;;;;4975788;28;20103;-65
2022/05/30 02:39:18;;;;;;;10.05;9.05;;;;;;;;;;4975662;28;20089;-65
2022/05/30 02:42:14;;;;;;;10.85;8.70;;;;;;;;;;4972674;28;20110;-65
2022/05/30 02:44:44;;;;;;;11.93;8.70;;;;;;;;;;4975483;28;20101;-64
2022/05/30 02:47:14;;;;;;;12.13;9.65;;;;;;;;;;4975370;28;20054;-65
2022/05/30 02:49:48;;;;;;;9.10;7.38;;;;;;;;;;4975175;28;20062;-65
2022/05/30 02:52:18;;;;;;;9.45;8.30;;;;;;;;;;4976725;28;20557;-65
2022/05/30 02:54:46;;;;;;;8.82;7.88;;;;;;;;;;4974846;28;20063;-66
2022/05/30 02:57:27;;;;;;;9.40;8.18;;;;;;;;;;4975120;28;20141;-66
2022/05/30 02:59:56;;;;;;;9.68;8.10;;;;;;;;;;4975844;28;20090;-66
2022/05/30 03:02:26;;;;;;;9.80;8.10;;;;;;;;;;4974474;28;20155;-66
2022/05/30 03:04:58;;;;;;;11.25;8.57;;;;;;;;;;4969915;28;20086;-66
2022/05/30 03:07:29;;;;;;;8.98;7.05;;;;;;;;;;4974950;28;20091;-66
2022/05/30 03:10:08;;;;;;;12.85;8.15;;;;;;;;;;4975062;28;20089;-65
2022/05/30 03:12:46;;;;;;;13.32;8.02;;;;;;;;;;4975010;28;20106;-66
2022/05/30 03:15:15;;;;;;;10.70;7.80;;;;;;;;;;4975210;28;20046;-66
2022/05/30 03:17:45;;;;;;;9.55;7.45;;;;;;;;;;4974731;28;20138;-66
2022/05/30 03:20:15;;;;;;;12.25;8.77;;;;;;;;;;4976254;28;20051;-65
2022/05/30 03:22:48;;;;;;;10.98;7.32;;;;;;;;;;4974372;28;20054;-66
2022/05/30 03:25:20;;;;;;;10.32;7.93;;;;;;;;;;4976279;28;20170;-66
2022/05/30 03:27:53;;;;;;;11.00;7.20;;;;;;;;;;4974621;28;20577;-66
2022/05/30 03:30:24;;;;;;;7.78;7.07;;;;;;;;;;4972416;28;20053;-66
2022/05/30 03:32:53;;;;;;;10.60;7.20;;;;;;;;;;4974832;28;20410;-66
2022/05/30 03:35:23;;;;;;;15.73;8.77;;;;;;;;;;4975531;28;20061;-65
2022/05/30 03:38:07;;;;;;;8.52;6.60;;;;;;;;;;4972141;28;20498;-65
2022/05/30 03:40:56;;;;;;;12.18;6.93;;;;;;;;;;4988220;28;20177;-65
2022/05/30 03:43:45;;;;;;;9.45;7.25;;;;;;;;;;4971480;28;20055;-65
2022/05/30 03:46:15;;;;;;;11.15;8.05;;;;;;;;;;4975566;28;20050;-65
2022/05/30 03:48:45;;;;;;;13.00;7.93;;;;;;;;;;4971522;28;20394;-65
2022/05/30 03:51:14;;;;;;;9.48;7.18;;;;;;;;;;4971654;28;20051;-65
2022/05/30 03:53:45;;;;;;;7.53;6.10;;;;;;;;;;4974219;28;20137;-65
2022/05/30 03:56:16;;;;;;;15.10;7.72;;;;;;;;;;4973815;28;20494;-65
2022/05/30 03:58:46;;;;;;;10.07;6.55;;;;;;;;;;4973840;28;20062;-65
2022/05/30 04:01:15;;;;;;;8.40;6.00;;;;;;;;;;4973858;28;20046;-64
2022/05/30 04:03:44;;;;;;;11.32;6.25;;;;;;;;;;4975238;28;20547;-65
2022/05/30 04:06:15;;;;;;;8.98;6.55;;;;;;;;;;4975201;28;20101;-64
2022/05/30 04:08:44;;;;;;;7.68;5.95;;;;;;;;;;4973779;28;20126;-65
2022/05/30 04:11:28;;;;;;;9.88;5.80;;;;;;;;;;4971278;28;20043;-64
2022/05/30 04:14:03;;;;;;;10.38;6.78;;;;;;;;;;4975022;28;20517;-65
2022/05/30 04:16:32;;;;;;;9.25;6.18;;;;;;;;;;4975041;28;20122;-66
2022/05/30 04:19:06;;;;;;;9.98;6.10;;;;;;;;;;4972313;28;20561;-66
2022/05/30 04:21:37;;;;;;;14.75;6.28;;;;;;;;;;4973862;28;20053;-65
2022/05/30 04:24:08;;;;;;;6.53;5.30;;;;;;;;;;4973162;28;20061;-68
2022/05/30 04:26:53;;;;;;;8.75;5.50;;;;;;;;;;4968778;28;20133;-64
2022/05/30 04:29:29;;;;;;;6.88;4.93;;;;;;;;;;4974303;28;20047;-64
2022/05/30 04:32:08;;;;;;;11.77;5.63;;;;;;;;;;4975184;28;20517;-63
2022/05/30 04:34:38;;;;;;;8.90;5.82;;;;;;;;;;4973328;28;20046;-64
2022/05/30 04:37:08;;;;;;;5.53;4.90;;;;;;;;;;4974775;28;20053;-64
2022/05/30 04:39:41;;;;;;;8.43;5.45;;;;;;;;;;4973706;28;20141;-64
2022/05/30 04:42:29;;;;;;;11.73;5.53;;;;;;;;;;4969763;28;20050;-64
2022/05/30 04:45:16;;;;;;;8.60;5.32;;;;;;;;;;4974491;28;20117;-64
2022/05/30 04:48:05;;;;;;;5.93;5.30;;;;;;;;;;4973154;28;20051;-64
2022/05/30 04:50:36;;;;;;;9.57;6.47;;;;;;;;;;4973287;28;20055;-64
2022/05/30 04:53:05;;;;;;;10.30;6.50;;;;;;;;;;4972548;28;20058;-64
2022/05/30 04:55:55;;;;;;;8.05;6.40;;;;;;;;;;4974202;28;20096;-64
2022/05/30 04:58:38;;;;;;;9.18;6.18;;;;;;;;;;4973277;28;20406;-65
2022/05/30 05:01:11;;;;;;;13.85;6.53;;;;;;;;;;4967395;28;20058;-64
2022/05/30 05:03:42;;;;;;;10.73;6.57;;;;;;;;;;4972904;28;20050;-65
2022/05/30 05:06:17;;;;;;;7.47;6.03;;;;;;;;;;4972201;28;20054;-64
2022/05/30 05:08:59;;;;;;;7.22;5.65;;;;;;;;;;4972309;28;21453;-64
2022/05/30 05:11:37;;;;;;;8.38;5.25;;;;;;;;;;4968258;28;20058;-64
2022/05/30 05:14:25;;;;;;;6.07;5.43;;;;;;;;;;4971785;28;20054;-65
2022/05/30 05:17:15;;;;;;;13.48;5.57;;;;;;;;;;4970603;28;20508;-63
2022/05/30 05:19:45;;;;;;;10.45;6.30;;;;;;;;;;4969192;28;20469;-65
2022/05/30 05:22:15;;;;;;;8.18;5.80;;;;;;;;;;4971099;28;20057;-65
2022/05/30 05:24:44;;;;;;;7.95;4.53;;;;;;;;;;4984485;28;20516;-65
2022/05/30 05:27:32;;;;;;;10.57;4.60;;;;;;;;;;4968361;28;20097;-65
2022/05/30 05:30:05;;;;;;;8.68;5.50;;;;;;;;;;4966294;28;20117;-67
2022/05/30 05:32:34;;;;;;;7.45;4.75;;;;;;;;;;4970162;28;20069;-66
2022/05/30 05:35:08;;;;;;;5.78;5.20;;;;;;;;;;4971221;28;20453;-64
2022/05/30 05:37:38;;;;;;;5.30;4.78;;;;;;;;;;4970286;28;20134;-65
2022/05/30 05:40:41;;;;;;;6.53;5.43;;;;;;;;;;4943161;28;20066;-65
2022/05/30 05:43:11;;;;;;;9.73;5.07;;;;;;;;;;4964792;28;20054;-66
2022/05/30 05:45:43;;;;;;;7.88;5.53;;;;;;;;;;4967074;28;20521;-65
2022/05/30 05:48:16;;;;;;;7.80;4.93;;;;;;;;;;4964505;28;20043;-66
2022/05/30 05:50:44;;;;;;;7.25;5.20;;;;;;;;;;4970577;28;20509;-65
2022/05/30 05:53:16;;;;;;;8.20;5.25;;;;;;;;;;4972258;28;20058;-67
2022/05/30 05:55:47;;;;;;;9.50;4.57;;;;;;;;;;4972686;28;20058;-65
2022/05/30 05:58:19;;;;;;;7.20;4.60;;;;;;;;;;4972620;28;20467;-66
2022/05/30 06:00:49;;;;;;;6.70;5.50;;;;;;;;;;4972569;28;20101;-66
2022/05/30 06:03:18;;;;;;;5.65;5.10;;;;;;;;;;4968595;28;20074;-66
2022/05/30 06:06:19;;;;;;;5.65;4.43;;;;;;;;;;4969267;28;20374;-66
2022/05/30 06:08:56;;;;;;;7.97;4.47;;;;;;;;;;4970958;28;20051;-66
2022/05/30 06:11:39;;;;;;;8.20;5.05;;;;;;;;;;4965344;28;20047;-66
2022/05/30 06:14:08;;;;;;;6.00;4.88;;;;;;;;;;4971723;28;20541;-66
2022/05/30 06:16:40;;;;;;;13.32;5.03;;;;;;;;;;4970532;28;20069;-66
2022/05/30 06:19:15;;;;;;;6.38;4.47;;;;;;;;;;4970374;28;20043;-66
2022/05/30 06:21:45;;;;;;;7.30;4.63;;;;;;;;;;4968662;28;20122;-66
2022/05/30 06:24:16;;;;;;;5.30;4.68;;;;;;;;;;4989992;28;20059;-66
2022/05/30 06:27:06;;;;;;;9.73;4.82;;;;;;;;;;4968733;28;20065;-66
2022/05/30 06:29:54;;;;;;;4.93;4.43;;;;;;;;;;4972290;28;20110;-66
2022/05/30 06:32:24;;;;;;;5.18;4.15;;;;;;;;;;4987223;28;20133;-66
2022/05/30 06:35:07;;;;;;;7.80;4.32;;;;;;;;;;4975544;28;20047;-66
2022/05/30 06:37:39;;;;;;;7.50;4.70;;;;;;;;;;4972387;28;20094;-65
2022/05/30 06:40:11;;;;;;;6.00;4.60;;;;;;;;;;4979836;28;20395;-66
2022/05/30 06:42:44;;;;;;;5.40;4.05;;;;;;;;;;4971176;28;20043;-65
2022/05/30 06:45:33;;;;;;;5.97;4.03;;;;;;;;;;4895345;29;20393;-64
2022/05/30 06:48:21;;;;;;;16.73;5.28;;;;;;;;;;4972351;28;20447;-65
2022/05/30 06:50:53;;;;;;;5.45;3.95;;;;;;;;;;4975199;28;20101;-64
2022/05/30 06:53:22;;;;;;;4.13;3.70;;;;;;;;;;4975142;28;20051;-65
2022/05/30 06:55:56;;;;;;;6.60;3.40;;;;;;;;;;4961215;28;20054;-65
2022/05/30 06:58:29;;;;;;;7.65;2.85;;;;;;;;;;4975265;28;20133;-65
2022/05/30 07:01:02;;;;;;;10.15;3.30;;;;;;;;;;4975151;28;20082;-65
2022/05/30 07:03:32;;;;;;;3.28;2.92;;;;;;;;;;4976426;28;20505;-64
2022/05/30 07:06:25;;;;;;;4.55;3.10;;;;;;;;;;4976476;28;20117;-65
2022/05/30 07:09:13;;;;;;;3.53;2.78;;;;;;;;;;4976494;28;20141;-64
2022/05/30 07:12:10;;;;;;;8.33;3.03;;;;;;;;;;4973167;28;20047;-65
2022/05/30 07:14:39;;;;;;;4.18;2.63;;;;;;;;;;4975355;28;20142;-65
2022/05/30 07:17:10;;;;;;;2.60;2.40;;;;;;;;;;4974531;28;20521;-65
2022/05/30 07:19:40;;;;;;;3.67;2.72;;;;;;;;;;4975211;28;20141;-65
2022/05/30 07:22:10;;;;;;;2.65;2.45;;;;;;;;;;4974460;28;20498;-65
2022/05/30 07:24:57;;;;;;;4.32;2.72;;;;;;;;;;4994012;28;20061;-64
2022/05/30 07:27:46;;;;;;;3.85;2.53;;;;;;;;;;4968489;28;20085;-65
2022/05/30 07:30:50;;;;;;;4.00;2.70;;;;;;;;;;4973826;28;20059;-65
2022/05/30 07:33:39;;;;;;;2.70;2.25;;;;;;;;;;4990053;28;20140;-65
2022/05/30 07:36:30;;;;;;;3.28;2.22;;;;;;;;;;4964588;28;20068;-65
2022/05/30 07:39:21;;;;;;;2.97;2.25;;;;;;;;;;4965682;28;20057;-65
2022/05/30 07:42:10;;;;;;;2.50;2.10;;;;;;;;;;4992151;28;20089;-65
2022/05/30 07:45:03;;;;;;;7.63;2.88;;;;;;;;;;4986596;28;20054;-65
2022/05/30 07:47:40;;;;;;;5.13;2.30;;;;;;;;;;4995243;28;20080;-65
2022/05/30 07:50:28;;;;;;;4.65;1.65;;;;;;;;;;4994348;28;20145;-65
2022/05/30 07:53:11;;;;;;;3.88;1.50;;;;;;;;;;4990230;28;20073;-65
2022/05/30 07:55:55;;;;;;;2.35;1.77;;;;;;;;;;4977233;28;20484;-65
2022/05/30 07:58:28;;;;;;;3.30;1.77;;;;;;;;;;4975526;28;20054;-66
2022/05/30 08:00:57;;;;;;;2.05;1.67;;;;;;;;;;4975048;28;20078;-66
2022/05/30 08:03:30;;;;;;;2.28;1.70;;;;;;;;;;4975667;28;20057;-67
2022/05/30 08:06:25;;;;;;;2.58;1.90;;;;;;;;;;4956014;28;20054;-66
2022/05/30 08:09:27;;;;;;;2.85;1.60;;;;;;;;;;4933843;29;20062;-65
2022/05/30 08:12:07;;;;;;;4.32;1.92;;;;;;;;;;4925223;28;20050;-67
2022/05/30 08:15:09;;;;;;;4.13;2.00;;;;;;;;;;4990044;28;20054;-66
2022/05/30 08:17:59;;;;;;;1.85;1.75;;;;;;;;;;4993853;28;20136;-66
2022/05/30 08:20:30;;;;;;;2.20;1.98;;;;;;;;;;4994548;28;20054;-66
2022/05/30 08:23:01;;;;;;;2.75;2.50;;;;;;;;;;4976833;28;20481;-66
2022/05/30 08:25:32;;;;;;;2.75;2.20;;;;;;;;;;4976154;28;20505;-66
2022/05/30 08:28:02;;;;;;;2.53;2.25;;;;;;;;;;4976627;28;20054;-66
2022/05/30 08:30:33;;;;;;;5.82;2.08;;;;;;;;;;4976659;28;20133;-66
2022/05/30 08:33:27;;;;;;;3.25;2.10;;;;;;;;;;4970793;28;20062;-66
2022/05/30 08:36:15;;;;;;;3.63;2.60;;;;;;;;;;4991007;28;20064;-66
2022/05/30 08:38:46;;;;;;;4.28;2.55;;;;;;;;;;4973985;28;20049;-67
2022/05/30 08:44:22;;;;;;;2.85;2.22;;;;;;;;;;4976498;28;20042;-67
2022/05/30 08:47:30;;;;;;;4.00;1.90;;;;;;;;;;4974048;28;20513;-67
2022/05/30 08:50:30;;;;;;;3.03;1.70;;;;;;;;;;4973738;28;20042;-67
2022/05/30 08:53:04;;;;;;;3.75;2.03;;;;;;;;;;4932960;29;20055;-67
2022/05/30 08:55:37;;;;;;;3.60;1.30;;;;;;;;;;4972095;28;20162;-68
2022/05/30 08:58:09;;;;;;;2.53;1.52;;;;;;;;;;4976093;28;20051;-68
2022/05/30 09:00:41;;;;;;;2.05;1.63;;;;;;;;;;4974608;28;20141;-67
2022/05/30 09:03:32;;;;;;;3.95;2.00;;;;;;;;;;4987020;28;20129;-67
2022/05/30 09:06:17;;;;;;;5.60;2.05;;;;;;;;;;4975306;28;20422;-67
2022/05/30 09:08:50;;;;;;;2.90;1.42;;;;;;;;;;4989228;28;20133;-68
2022/05/30 09:11:42;;;;;;;3.35;1.92;;;;;;;;;;4976883;28;20049;-68
2022/05/30 09:14:20;;;;;;;3.30;1.48;;;;;;;;;;4974436;28;20050;-68
2022/05/30 09:16:56;;;;;;;2.47;1.40;;;;;;;;;;4991342;28;20046;-68
2022/05/30 09:19:29;;;;;;;3.78;2.03;;;;;;;;;;4976676;28;20141;-68
2022/05/30 09:22:04;;;;;;;1.60;1.50;;;;;;;;;;4975845;28;20053;-68
2022/05/30 09:25:55;;;;;;;4.05;1.60;;;;;;;;;;4975534;28;20169;-67
2022/05/30 09:27:38;;;;;;;4.05;2.10;;;;;;;;;;4975902;28;20046;-68
2022/05/30 09:30:35;;;;;;;7.85;1.52;;;;;;;;;;4993262;28;20038;-68
2022/05/30 09:33:40;;;;;;;3.85;1.60;;;;;;;;;;4965473;28;20118;-68
2022/05/30 09:36:49;;;;;;;4.25;1.80;;;;;;;;;;4988517;28;20096;-67
2022/05/30 09:39:45;;;;;;;;;;;;;;;;;;4987568;28;20513;-68
2022/05/30 09:42:43;;;;;;;5.38;2.13;;;;;;;;;;4973511;28;19928;-68
2022/05/30 09:45:16;;;;;;;3.53;1.65;;;;;;;;;;4973083;28;20051;-68
2022/05/30 09:48:14;;;;;;;2.85;2.13;;;;;;;;;;4959560;28;20141;-67
2022/05/30 09:50:54;;;;;;;3.55;2.17;;;;;;;;;;4975978;28;20497;-68
2022/05/30 09:53:50;;;;;;;3.92;2.08;;;;;;;;;;4975299;28;20046;-68
2022/05/30 09:56:23;;;;;;;3.90;2.20;;;;;;;;;;4971497;28;20153;-68
2022/05/30 09:59:03;;;;;;;4.22;2.03;;;;;;;;;;4978838;28;20489;-68
2022/05/30 10:01:54;;;;;;;3.13;1.63;;;;;;;;;;4976855;28;20058;-67
2022/05/30 10:04:41;;;;;;;3.80;2.40;;;;;;;;;;4966836;28;20560;-67
2022/05/30 10:07:17;;;;;;;4.40;2.50;;;;;;;;;;4966107;28;20074;-68
2022/05/30 10:10:31;;;;;;;4.22;2.30;;;;;;;;;;4974291;28;20100;-68
2022/05/30 10:13:26;;;;;;;3.55;1.67;;;;;;;;;;4993147;28;20050;-68
2022/05/30 10:16:16;;;;;;;;;;;;;;;;;;4988233;28;20086;-68
2022/05/30 10:19:20;;;;;;;4.00;2.20;;;;;;;;;;4976981;28;20424;-68
2022/05/30 10:29:15;;;;;;;10.73;3.22;;;;;;;;;;4962525;28;20061;-68
2022/05/30 10:32:30;;;;;;;2.92;2.60;;;;;;;;;;4994834;28;20061;-68
2022/05/30 10:35:32;;;;;;;3.83;2.92;;;;;;;;;;4977824;28;20050;-68
2022/05/30 10:38:21;;;;;;;3.15;2.85;;;;;;;;;;4962515;28;20108;-68
2022/05/30 10:41:04;;;;;;;3.55;3.22;;;;;;;;;;4977719;28;20065;-68
2022/05/30 10:43:54;;;;;;;3.20;3.00;;;;;;;;;;4979101;28;20137;-68
2022/05/30 10:47:04;;;;;;;4.50;2.70;;;;;;;;;;4978183;28;20632;-68
2022/05/30 10:50:08;;;;;;;3.00;2.57;;;;;;;;;;4970337;28;20046;-67
2022/05/30 10:52:39;;;;;;;5.47;2.80;;;;;;;;;;4986383;28;20341;-67
2022/05/30 10:55:36;;;;;;;5.40;3.03;;;;;;;;;;4976767;28;20077;-67
2022/05/30 10:58:24;;;;;;;4.43;3.17;;;;;;;;;;4973261;28;20061;-68
2022/05/30 11:01:07;;;;;;;5.97;4.97;;;;;;;;;;4976031;28;20417;-68
2022/05/30 11:03:47;;;;;;;6.78;5.03;;;;;;;;;;4977219;28;20050;-68
2022/05/30 11:06:27;;;;;;;6.32;5.03;;;;;;;;;;4978603;28;20038;-68
2022/05/30 11:09:07;;;;;;;3.80;2.97;;;;;;;;;;4966777;28;20053;-68
2022/05/30 11:11:44;;;;;;;5.57;4.60;;;;;;;;;;4977893;28;20046;-67
2022/05/30 11:14:47;;;;;;;5.78;3.15;;;;;;;;;;4962911;28;20141;-67
2022/05/30 11:17:56;;;;;;;4.40;3.20;;;;;;;;;;4980262;28;20086;-67
2022/05/30 11:21:06;;;;;;;7.43;3.45;;;;;;;;;;4963127;28;20602;-67
2022/05/30 11:23:38;;;;;;;6.78;4.05;;;;;;;;;;4971706;28;20405;-68
2022/05/30 11:26:15;;;;;;;4.97;3.10;;;;;;;;;;4994915;28;20046;-68
2022/05/30 11:29:03;;;;;;;;;;;;;;;;;;4995406;28;20050;-67
2022/05/30 11:31:56;;;;;;;8.88;3.40;;;;;;;;;;4977521;28;19929;-66
2022/05/30 11:34:49;;;;;;;6.82;3.47;;;;;;;;;;4993672;28;20493;-67
2022/05/30 11:37:25;;;;;;;4.10;3.25;;;;;;;;;;4987728;28;20077;-67
2022/05/30 11:40:30;;;;;;;3.85;3.50;;;;;;;;;;4994819;28;20057;-66
2022/05/30 11:43:28;;;;;;;10.88;4.60;;;;;;;;;;4991101;28;20056;-66
2022/05/30 11:46:12;;;;;;;7.93;3.45;;;;;;;;;;4992338;28;20042;-66
2022/05/30 11:48:56;;;;;;;3.67;3.28;;;;;;;;;;4993000;28;20046;-67
2022/05/30 11:51:47;;;;;;;5.50;3.28;;;;;;;;;;4992498;28;20584;-66
2022/05/30 11:54:29;;;;;;;4.32;3.92;;;;;;;;;;4993942;28;20053;-66
2022/05/30 11:57:19;;;;;;;3.97;3.10;;;;;;;;;;4994197;28;20125;-67
2022/05/30 11:59:51;;;;;;;6.28;3.42;;;;;;;;;;4977525;28;20050;-67
2022/05/30 12:02:36;;;;;;;8.68;4.25;;;;;;;;;;4992319;28;20050;-67
2022/05/30 12:05:11;;;;;;;4.43;3.97;;;;;;;;;;4991390;28;20134;-66
2022/05/30 12:08:24;;;;;;;5.50;3.85;;;;;;;;;;4991545;28;20497;-67
2022/05/30 12:10:55;;;;;;;4.65;3.60;;;;;;;;;;4989620;28;20054;-67
2022/05/30 12:13:52;;;;;;;3.78;3.38;;;;;;;;;;4992766;28;20057;-67
2022/05/30 12:16:24;;;;;;;5.10;3.22;;;;;;;;;;4992266;28;20054;-66
2022/05/30 12:24:56;;;;;;;5.05;3.72;;;;;;;;;;4991453;28;20054;-67
2022/05/30 12:27:35;;;;;;;6.47;3.70;;;;;;;;;;4992294;28;20057;-68
2022/05/30 12:30:35;;;;;;;4.07;3.30;;;;;;;;;;4991048;28;20481;-68
2022/05/30 12:33:29;;;;;;;6.82;3.70;;;;;;;;;;4991885;28;20058;-68
2022/05/30 12:36:10;;;;;;;6.53;3.47;;;;;;;;;;4985214;28;20054;-68
2022/05/30 12:39:01;;;;;;;4.18;3.78;;;;;;;;;;4992072;28;20061;-67
2022/05/30 12:42:07;;;;;;;6.50;3.95;;;;;;;;;;4992126;28;20054;-67
2022/05/30 12:44:49;;;;;;;4.75;3.70;;;;;;;;;;4980139;28;20057;-68
2022/05/30 12:47:37;;;;;;;6.93;4.20;;;;;;;;;;4992481;28;20117;-67
2022/05/30 12:50:31;;;;;;;4.72;4.22;;;;;;;;;;4987468;28;20068;-68
2022/05/30 12:53:01;;;;;;;4.03;3.63;;;;;;;;;;4987847;28;20066;-68
2022/05/30 12:55:46;;;;;;;7.20;3.63;;;;;;;;;;4991962;28;20058;-68
2022/05/30 12:58:40;;;;;;;4.00;3.30;;;;;;;;;;4975412;28;20508;-68
2022/05/30 13:01:26;;;;;;;4.20;3.80;;;;;;;;;;4991366;28;20484;-68
2022/05/30 13:04:05;;;;;;;5.30;4.22;;;;;;;;;;4992869;28;20050;-68
2022/05/30 13:06:58;;;;;;;5.80;4.40;;;;;;;;;;4992165;28;20054;-68
2022/05/30 13:09:33;;;;;;;4.60;4.15;;;;;;;;;;4991437;28;20070;-68
2022/05/30 13:12:10;;;;;;;5.65;5.13;;;;;;;;;;4993207;28;20050;-68
2022/05/30 13:14:48;;;;;;;3.90;3.50;;;;;;;;;;4993386;28;20077;-68
2022/05/30 13:17:23;;;;;;;4.70;4.13;;;;;;;;;;4988434;28;20523;-68
2022/05/30 13:19:59;;;;;;;5.85;3.63;;;;;;;;;;4994174;28;20440;-68
2022/05/30 13:22:45;;;;;;;13.73;6.88;;;;;;;;;;4993487;28;20054;-68
2022/05/30 13:25:42;;;;;;;9.23;5.05;;;;;;;;;;4977704;28;20051;-68
2022/05/30 13:28:17;;;;;;;5.82;4.63;;;;;;;;;;4993272;28;20097;-68
2022/05/30 13:30:48;;;;;;;6.47;4.65;;;;;;;;;;4993779;28;20042;-67
2022/05/30 13:33:26;;;;;;;5.65;4.22;;;;;;;;;;4980650;28;20054;-68
2022/05/30 13:36:00;;;;;;;6.88;4.85;;;;;;;;;;4996988;28;20064;-68
2022/05/30 13:38:38;;;;;;;7.32;5.15;;;;;;;;;;4994289;28;20126;-68
2022/05/30 13:41:15;;;;;;;5.88;5.05;;;;;;;;;;4983108;28;20058;-68
2022/05/30 13:43:45;;;;;;;5.50;4.85;;;;;;;;;;4985968;28;20501;-68
2022/05/30 13:46:39;;;;;;;10.05;5.03;;;;;;;;;;4996451;28;20050;-68
2022/05/30 13:49:09;;;;;;;7.88;5.18;;;;;;;;;;4989791;28;20654;-68
2022/05/30 13:51:42;;;;;;;7.43;5.30;;;;;;;;;;4996412;28;20046;-68
2022/05/30 13:54:14;;;;;;;4.97;4.57;;;;;;;;;;4980747;28;20068;-68
2022/05/30 13:56:45;;;;;;;5.32;4.82;;;;;;;;;;4996880;28;20532;-68
2022/05/30 13:59:26;;;;;;;7.78;5.28;;;;;;;;;;4997098;28;20050;-68
2022/05/30 14:02:02;;;;;;;5.97;4.80;;;;;;;;;;4997160;28;20523;-68
2022/05/30 14:05:19;;;;;;;8.05;4.05;;;;;;;;;;4983939;28;20524;-68
2022/05/30 14:07:49;;;;;;;7.75;5.07;;;;;;;;;;4996181;28;20081;-68
2022/05/30 14:10:24;;;;;;;8.88;4.05;;;;;;;;;;4982361;28;20061;-68
2022/05/30 14:13:17;;;;;;;4.90;4.50;;;;;;;;;;4982428;28;20085;-68
2022/05/30 14:15:57;;;;;;;5.85;5.13;;;;;;;;;;4996360;28;20498;-68
2022/05/30 14:18:54;;;;;;;7.15;4.93;;;;;;;;;;4997379;28;20050;-68
2022/05/30 14:21:33;;;;;;;6.47;4.93;;;;;;;;;;4996509;28;20141;-68
2022/05/30 14:24:14;;;;;;;5.28;4.63;;;;;;;;;;4996520;28;20061;-68
2022/05/30 14:26:43;;;;;;;6.78;4.63;;;;;;;;;;4990218;28;20130;-68
2022/05/30 14:29:31;;;;;;;6.43;5.22;;;;;;;;;;4993800;28;20048;-68
2022/05/30 14:32:08;;;;;;;7.50;5.13;;;;;;;;;;4981869;28;20068;-68
2022/05/30 14:34:41;;;;;;;7.78;5.70;;;;;;;;;;4980967;28;20046;-68
2022/05/30 14:37:38;;;;;;;11.10;5.60;;;;;;;;;;4996316;28;20111;-68
2022/05/30 14:40:37;;;;;;;5.55;4.53;;;;;;;;;;4995601;28;20053;-68
2022/05/30 14:43:28;;;;;;;6.32;4.47;;;;;;;;;;4988572;28;20050;-68
2022/05/30 14:46:07;;;;;;;4.55;4.15;;;;;;;;;;4996506;28;20133;-68
2022/05/30 14:49:03;;;;;;;5.80;4.60;;;;;;;;;;4995844;28;20505;-68
2022/05/30 14:51:38;;;;;;;13.13;6.35;;;;;;;;;;4991237;28;20406;-68
2022/05/30 14:54:33;;;;;;;9.77;5.57;;;;;;;;;;4993470;28;20050;-67
2022/05/30 14:57:04;;;;;;;5.50;4.68;;;;;;;;;;4993355;28;20074;-67
2022/05/30 14:59:37;;;;;;;8.30;6.05;;;;;;;;;;4980836;28;20050;-68
2022/05/30 15:04:02;;;;;;;5.47;4.97;;;;;;;;;;4995965;28;20505;-67
2022/05/30 15:05:03;;;;;;;12.15;4.85;;;;;;;;;;4994579;28;20050;-68
2022/05/30 15:07:37;;;;;;;5.70;5.20;;;;;;;;;;4995648;28;20058;-67
2022/05/30 15:10:07;;;;;;;;;;;;;;;;;;4990014;28;20047;-67
2022/05/30 15:12:36;;;;;;;7.28;5.70;;;;;;;;;;4962430;28;19944;-67
2022/05/30 15:15:07;;;;;;;8.77;5.10;;;;;;;;;;4995591;28;20453;-67
2022/05/30 15:17:39;;;;;;;9.32;4.82;;;;;;;;;;4995019;28;20452;-67
2022/05/30 15:20:10;;;;;;;5.95;5.20;;;;;;;;;;4994246;28;20086;-67
2022/05/30 15:22:41;;;;;;;6.03;4.80;;;;;;;;;;4992877;28;20101;-67
2022/05/30 15:25:10;;;;;;;7.30;4.60;;;;;;;;;;4995451;28;20062;-68
2022/05/30 15:27:38;;;;;;;9.38;4.63;;;;;;;;;;4990787;28;20600;-67
2022/05/30 15:30:12;;;;;;;5.22;4.80;;;;;;;;;;4993680;28;20053;-68
2022/05/30 15:32:43;;;;;;;5.95;5.35;;;;;;;;;;4993453;28;20053;-67
2022/05/30 15:35:16;;;;;;;10.02;4.20;;;;;;;;;;4993290;28;20099;-67
2022/05/30 15:37:45;;;;;;;5.93;4.72;;;;;;;;;;4994998;28;20508;-68
2022/05/30 15:40:14;;;;;;;4.68;4.15;;;;;;;;;;4992890;28;20611;-67
2022/05/30 15:42:49;;;;;;;6.32;3.63;;;;;;;;;;4994402;28;20058;-67
2022/05/30 15:45:24;;;;;;;8.05;5.15;;;;;;;;;;4993565;28;20317;-67
2022/05/30 15:47:55;;;;;;;5.47;4.97;;;;;;;;;;4993976;28;20050;-67
2022/05/30 15:50:26;;;;;;;7.45;5.10;;;;;;;;;;4994868;28;20042;-67
2022/05/30 15:58:40;;;;;;;7.47;5.75;;;;;;;;;;4984084;28;20105;-67
2022/05/30 16:01:11;;;;;;;13.10;6.78;;;;;;;;;;4994054;28;20145;-67
2022/05/30 16:03:41;;;;;;;5.68;5.07;;;;;;;;;;4994856;28;20073;-67
2022/05/30 16:06:11;;;;;;;6.00;4.80;;;;;;;;;;4994327;28;20429;-67
2022/05/30 16:08:45;;;;;;;6.97;5.57;;;;;;;;;;4994775;28;20460;-67
2022/05/30 16:11:17;;;;;;;5.32;4.82;;;;;;;;;;4994510;28;20105;-67
2022/05/30 16:13:47;;;;;;;9.65;5.20;;;;;;;;;;4994900;28;20042;-67
2022/05/30 16:16:17;;;;;;;10.65;4.63;;;;;;;;;;4994725;28;20105;-67
2022/05/30 16:18:49;;;;;;;6.03;5.13;;;;;;;;;;4993746;28;20514;-66
2022/05/30 16:21:22;;;;;;;7.60;4.75;;;;;;;;;;4987500;28;20062;-67
2022/05/30 16:23:55;;;;;;;7.18;5.38;;;;;;;;;;4991336;28;20069;-67
2022/05/30 16:26:27;;;;;;;5.45;4.78;;;;;;;;;;4992446;28;20069;-67